Latest Weather Observations for Maria Island

IDT60901

Issued at 2:51 am EDT Monday 18 November 2019 (issued every 10 minutes, with the page automatically refreshed every 10 minutes)

About weather observations | Map of Hobart area stations | Latest observations for Hobart area | Other Formats
Station Details ID: 092124 Name: MARIA ISLAND (POINT LESUEUR) Lat: -42.66 Lon: 148.02 Height: 28.0 m
Data from the previous 72 hours. | See also: Recent months at Maria Island
Date/Time
EDT
Temp
°C
App
Temp
°C
Dew
Point
°C
Rel
Hum
%
Delta-T
°C
Wind Press
QNH
hPa
Press
MSL
hPa
Rain since
9am
mm
Dir  Spd
km/h
Gust
km/h
Spd
kts
Gust
kts
18/02:30am 11.7 6.3 2.2 52 4.1 NW 20 30 11 16 1008.9 1008.9 0.0
18/02:00am 11.7 7.7 2.7 54 3.9 N 13 20 7 11 1009.5 1009.5 0.0
18/01:30am 11.5 8.3 2.8 55 3.8 N 9 13 5 7 1010.2 1010.2 0.0
18/01:00am 11.4 8.1 2.4 54 3.9 NNW 9 13 5 7 1011.0 1011.0 0.0
18/12:30am 11.7 7.7 3.0 55 3.8 NW 13 22 7 12 1011.5 1011.5 0.0
18/12:00am 11.8 7.6 3.6 57 3.6 NW 15 22 8 12 1011.6 1011.6 0.0
 
Date/Time
EDT
Temp
°C
App
Temp
°C
Dew
Point
°C
Rel
Hum
%
Delta-T
°C
Wind Press
QNH
hPa
Press
MSL
hPa
Rain since
9am
mm
Dir  Spd
km/h
Gust
km/h
Spd
kts
Gust
kts
17/11:30pm 11.7 7.2 6.2 69 2.6 NNW 19 24 10 13 1012.7 1012.7 0.0
17/11:00pm 11.8 5.3 6.7 71 2.4 N 30 35 16 19 1012.5 1012.5 0.0
17/10:30pm 11.7 5.8 6.0 68 2.7 N 26 32 14 17 1013.1 1013.1 0.0
17/10:00pm 11.7 5.4 5.8 67 2.8 N 28 33 15 18 1013.4 1013.4 0.0
17/09:30pm 11.4 6.2 5.3 66 2.8 NNE 22 26 12 14 1013.7 1013.7 0.0
17/09:00pm 11.3 6.6 5.0 65 2.9 NNE 19 24 10 13 1014.1 1014.1 0.0
17/08:30pm 11.3 5.7 5.2 66 2.8 NNE 24 30 13 16 1014.3 1014.3 0.0
17/08:00pm 11.3 5.6 5.0 65 2.9 NNE 24 28 13 15 1014.5 1014.5 0.0
17/07:30pm 11.7 6.3 4.7 62 3.2 NNE 22 28 12 15 1014.4 1014.4 0.0
17/07:00pm 12.0 7.2 5.4 64 3.1 N 20 26 11 14 1014.3 1014.3 0.0
17/06:30pm 12.5 7.3 5.7 63 3.2 N 22 26 12 14 1014.3 1014.3 0.0
17/06:00pm 13.2 6.6 5.9 61 3.4 N 30 33 16 18 1014.1 1014.1 0.0
17/05:38pm 13.6 8.6 6.5 62 3.4 N 22 37 12 20 1013.9 1013.9 0.0
17/05:30pm 14.7 11.8 4.7 51 4.7 NNW 9 15 5 8 1014.1 1014.1 0.0
17/05:00pm 14.0 7.5 4.9 54 4.2 SSW 28 35 15 19 1013.9 1013.9 0.0
17/04:30pm 13.6 7.1 4.5 54 4.2 S 28 35 15 19 1013.5 1013.5 0.0
17/04:00pm 14.1 6.7 4.1 51 4.6 S 32 35 17 19 1013.5 1013.5 0.0
17/03:30pm 14.4 7.2 5.0 53 4.4 S 32 37 17 20 1013.5 1013.5 0.0
17/03:00pm 14.2 6.4 5.0 54 4.3 SSW 35 39 19 21 1013.6 1013.6 0.0
17/02:30pm 14.1 6.6 4.7 53 4.4 S 33 41 18 22 1013.8 1013.8 0.0
17/02:00pm 13.1 6.7 5.0 58 3.8 S 28 33 15 18 1014.2 1014.2 0.0
17/01:30pm 14.6 8.9 4.9 52 4.5 SSW 24 33 13 18 1014.3 1014.3 0.0
17/01:00pm 12.8 5.7 3.7 54 4.1 S 30 35 16 19 1014.2 1014.2 0.0
17/12:30pm 12.8 6.5 3.7 54 4.1 S 26 35 14 19 1014.3 1014.3 0.0
17/12:00pm 13.9 6.2 2.2 45 5.1 SSW 32 37 17 20 1014.4 1014.4 0.0
17/11:30am 13.2 3.8 2.4 48 4.7 SSW 41 48 22 26 1014.8 1014.8 0.0
17/11:00am 12.7 5.3 2.0 48 4.6 SW 30 46 16 25 1014.9 1014.9 0.0
17/10:30am 12.6 4.4 2.5 50 4.4 SW 35 52 19 28 1014.8 1014.8 0.0
17/10:23am 11.8 3.8 1.7 50 4.3 SW 33 52 18 28 1014.6 1014.6 0.0
17/10:00am 11.4 6.7 1.1 49 4.3 WSW 15 24 8 13 1014.8 1014.8 0.0
17/09:30am 11.0 3.9 1.3 51 4.1 WSW 28 39 15 21 1014.5 1014.5 0.0
17/09:00am 10.7 3.5 0.7 50 4.1 SW 28 39 15 21 1014.6 1014.6 0.0
17/08:30am 10.3 2.7 0.6 51 4.0 WSW 30 43 16 23 1014.3 1014.3 0.0
17/08:09am 10.3 3.2 1.4 54 3.7 WSW 28 43 15 23 1014.0 1014.0 0.0
17/08:00am 10.2 5.6 1.3 54 3.7 WSW 15 24 8 13 1014.1 1014.1 0.0
17/07:30am 9.7 3.0 1.4 56 3.4 WSW 26 37 14 20 1013.9 1013.9 0.0
17/07:00am 9.2 3.2 1.1 57 3.3 WSW 22 32 12 17 1013.4 1013.4 0.0
17/06:30am 8.8 1.7 1.5 60 3.0 WSW 28 35 15 19 1012.9 1012.9 0.0
17/06:00am 8.4 1.7 1.6 62 2.8 WSW 26 32 14 17 1012.5 1012.5 0.0
17/05:30am 8.3 1.9 1.2 61 2.9 WSW 24 33 13 18 1012.3 1012.3 0.0
17/05:00am 8.2 2.6 1.4 62 2.8 WSW 20 26 11 14 1012.1 1012.1 0.0
17/04:30am 8.2 2.6 1.1 61 2.9 W 20 28 11 15 1011.7 1011.7 0.0
17/04:00am 8.3 3.4 1.7 63 2.7 W 17 22 9 12 1011.4 1011.4 0.0
17/03:30am 8.4 4.2 1.8 63 2.7 W 13 19 7 10 1011.2 1011.2 0.0
17/03:00am 8.5 3.2 1.9 63 2.7 WSW 19 24 10 13 1011.0 1011.0 0.0
17/02:30am 9.1 3.9 2.7 64 2.7 WSW 19 24 10 13 1010.8 1010.8 0.0
17/02:00am 8.9 4.9 2.9 66 2.6 SW 13 17 7 9 1010.8 1010.8 0.0
17/01:30am 9.1 4.1 3.7 69 2.3 SW 19 22 10 12 1010.8 1010.8 0.0
17/01:00am 8.9 5.4 3.7 70 2.3 SSW 11 15 6 8 1010.7 1010.7 0.0
17/12:30am 9.1 4.9 3.7 69 2.3 SW 15 22 8 12 1010.5 1010.5 0.0
17/12:00am 10.0 4.7 3.1 62 3.0 W 20 26 11 14 1010.4 1010.4 0.0
 
Date/Time
EDT
Temp
°C
App
Temp
°C
Dew
Point
°C
Rel
Hum
%
Delta-T
°C
Wind Press
QNH
hPa
Press
MSL
hPa
Rain since
9am
mm
Dir  Spd
km/h
Gust
km/h
Spd
kts
Gust
kts
16/11:30pm 10.1 4.4 2.9 61 3.1 WNW 22 30 12 16 1010.1 1010.1 0.0
16/11:00pm 10.2 4.0 2.3 58 3.4 NW 24 30 13 16 1010.1 1010.1 0.0
16/10:30pm 10.4 3.5 2.7 59 3.3 WNW 28 41 15 22 1009.8 1009.8 0.0
16/10:00pm 10.1 4.5 3.2 62 3.0 NW 22 30 12 16 1009.9 1009.9 0.0
16/09:30pm 10.7 3.5 1.0 51 4.0 WNW 28 37 15 20 1009.6 1009.6 0.0
16/09:00pm 10.7 4.5 2.0 55 3.7 WNW 24 35 13 19 1009.3 1009.3 0.0
16/08:30pm 10.4 6.0 2.5 58 3.4 W 15 22 8 12 1009.1 1009.1 0.0
16/08:00pm 10.9 2.4 3.2 59 3.4 WSW 37 44 20 24 1008.5 1008.5 0.0
16/07:38pm 10.3 2.8 4.7 68 2.5 WSW 33 56 18 30 1008.0 1008.0 0.0
16/07:30pm 10.0 2.2 4.8 70 2.3 WSW 35 52 19 28 1008.2 1008.2 0.0
16/07:13pm 11.2 1.1 3.5 59 3.4 W 46 65 25 35 1007.6 1007.6 0.0
16/07:00pm 12.3 4.2 3.5 55 3.9 WSW 35 46 19 25 1007.8 1007.8 0.0
16/06:30pm 12.4 4.0 3.6 55 3.9 SW 37 44 20 24 1007.4 1007.4 0.0
16/06:00pm 13.7 5.3 1.4 43 5.3 W 35 48 19 26 1007.0 1006.9 0.0
16/05:30pm 14.4 5.7 2.0 43 5.4 W 37 52 20 28 1006.9 1006.8 0.0
16/05:04pm 14.4 7.5 2.6 45 5.2 W 28 50 15 27 1006.8 1006.7 0.0
16/05:00pm 13.9 8.2 2.8 47 5.0 W 22 33 12 18 1006.9 1006.8 0.0
16/04:30pm 13.8 2.1 3.3 49 4.7 W 54 70 29 38 1006.4 1006.3 0.0
16/04:20pm 14.0 3.1 1.6 43 5.4 W 48 69 26 37 1005.9 1005.8 0.0
16/04:08pm 15.7 7.3 1.4 38 6.3 W 35 56 19 30 1006.0 1005.9 0.0
16/04:00pm 15.6 7.3 2.1 40 6.0 W 35 48 19 26 1006.3 1006.2 0.0
16/03:30pm 14.9 6.2 1.8 41 5.7 WSW 37 59 20 32 1006.5 1006.4 0.0
16/03:15pm 15.4 5.4 1.2 38 6.2 W 43 65 23 35 1006.1 1006.0 0.0
16/03:00pm 15.1 5.1 2.3 42 5.7 W 44 61 24 33 1006.1 1006.0 0.0
16/02:48pm 15.2 5.5 3.0 44 5.5 W 43 65 23 35 1005.9 1005.8 0.0
16/02:46pm 15.3 5.9 2.5 42 5.7 W 41 59 22 32 1006.0 1005.9 0.0
16/02:30pm 15.5 8.4 3.6 45 5.5 WNW 30 37 16 20 1006.4 1006.3 0.0
16/02:11pm 13.6 5.8 3.1 49 4.7 W 33 52 18 28 1006.5 1006.4 0.0
16/02:00pm 13.1 3.7 2.6 49 4.6 W 41 56 22 30 1006.5 1006.4 0.0
16/01:30pm 13.9 5.8 0.9 41 5.5 WSW 33 52 18 28 1006.0 1005.9 0.0
16/01:03pm 15.2 7.3 1.0 38 6.1 W 32 54 17 29 1006.4 1006.3 0.0
16/01:00pm 15.2 7.4 1.4 39 6.0 W 32 43 17 23 1006.4 1006.3 0.0
16/12:47pm 15.7 7.5 2.5 41 5.9 W 35 65 19 35 1006.2 1006.1 0.0
16/12:46pm 15.2 7.2 1.7 40 5.9 W 33 50 18 27 1006.4 1006.3 0.0
16/12:30pm 14.3 3.4 1.6 42 5.5 WSW 48 69 26 37 1006.4 1006.3 0.0
16/12:22pm 13.4 2.4 0.8 42 5.3 WSW 48 69 26 37 1006.2 1006.1 0.0
16/12:18pm 13.4 2.8 1.1 43 5.2 WSW 46 61 25 33 1006.3 1006.2 0.0
16/12:06pm 14.2 5.6 0.5 39 5.8 W 35 61 19 33 1006.3 1006.2 0.0
16/12:00pm 14.8 7.5 -0.1 36 6.3 W 28 48 15 26 1006.4 1006.3 0.0
16/11:51am 13.9 6.5 1.9 44 5.2 WSW 30 50 16 27 1006.7 1006.6 0.0
16/11:30am 13.3 5.4 2.2 47 4.8 SW 33 46 18 25 1006.7 1006.6 0.0
16/11:19am 13.4 4.5 0.8 42 5.3 WSW 37 54 20 29 1006.5 1006.4 0.0
16/11:07am 13.3 5.6 0.0 40 5.5 WNW 30 48 16 26 1006.7 1006.6 0.0
16/11:00am 13.7 5.1 0.0 39 5.7 W 35 46 19 25 1006.8 1006.7 0.0
16/10:30am 13.7 6.6 1.4 43 5.3 W 28 43 15 23 1006.7 1006.6 0.0
16/10:00am 12.7 5.6 1.1 45 4.9 W 28 59 15 32 1006.4 1006.3 0.0
16/09:59am 12.8 6.3 0.5 43 5.1 WNW 24 59 13 32 1006.7 1006.6 0.0
16/09:58am 12.9 6.8 0.6 43 5.2 WNW 22 44 12 24 1006.8 1006.7 0.0
16/09:46am 12.7 6.5 2.0 48 4.6 WNW 24 32 13 17 1006.7 1006.6 0.0
16/09:30am 12.6 4.3 2.2 49 4.5 W 35 52 19 28 1006.4 1006.3 0.0
16/09:07am 12.0 4.1 1.3 48 4.5 W 32 50 17 27 1006.5 1006.4 0.0
16/09:00am 11.8 4.0 1.7 50 4.3 WSW 32 39 17 21 1006.6 1006.5 0.0
16/08:30am 11.2 4.2 1.7 52 4.0 W 28 46 15 25 1006.5 1006.4 0.0
16/08:00am 9.9 4.9 1.3 55 3.6 WNW 17 32 9 17 1006.5 1006.4 0.0
16/07:30am 9.1 2.8 1.8 60 3.0 NW 24 32 13 17 1006.4 1006.3 0.0
16/07:00am 8.7 0.9 1.6 61 2.9 NNW 32 35 17 19 1005.9 1005.8 0.0
16/06:30am 8.9 2.3 2.0 62 2.9 NNW 26 33 14 18 1005.9 1005.8 0.0
16/06:00am 8.2 1.2 1.8 64 2.6 NNW 28 35 15 19 1005.4 1005.3 0.0
16/05:30am 8.0 1.0 1.8 65 2.5 NNW 28 35 15 19 1004.7 1004.6 0.0
16/05:00am 8.2 2.3 2.0 65 2.6 NW 22 32 12 17 1005.1 1005.0 0.0
16/04:30am 7.8 2.5 1.6 65 2.5 WNW 19 28 10 15 1004.9 1004.8 0.0
16/04:00am 8.0 1.8 2.0 66 2.5 W 24 30 13 16 1005.0 1004.9 0.0
16/03:30am 8.1 2.6 1.9 65 2.6 WNW 20 26 11 14 1005.1 1005.0 0.0
16/03:00am 8.5 3.0 1.6 62 2.9 NNW 20 30 11 16 1005.1 1005.0 0.0
16/02:30am 8.1 2.6 1.7 64 2.6 NW 20 28 11 15 1005.1 1005.0 0.0
16/02:00am 8.3 2.7 1.2 61 2.9 NW 20 30 11 16 1004.9 1004.8 0.0
16/01:30am 8.5 2.5 1.0 59 3.0 NNW 22 30 12 16 1004.9 1004.8 0.0
16/01:00am 8.7 3.7 1.4 60 3.0 NW 17 28 9 15 1005.2 1005.1 0.0
16/12:30am 8.9 3.8 0.9 57 3.2 WNW 17 28 9 15 1005.3 1005.2 0.0
16/12:00am 8.8 3.4 1.5 60 3.0 WNW 19 32 10 17 1005.1 1005.0 0.0
 
Date/Time
EDT
Temp
°C
App
Temp
°C
Dew
Point
°C
Rel
Hum
%
Delta-T
°C
Wind Press
QNH
hPa
Press
MSL
hPa
Rain since
9am
mm
Dir  Spd
km/h
Gust
km/h
Spd
kts
Gust
kts
15/11:30pm 8.7 4.1 1.4 60 3.0 WNW 15 20 8 11 1005.1 1005.0 0.0
15/11:00pm 9.2 5.4 1.6 59 3.2 W 11 19 6 10 1005.0 1004.9 0.0
15/10:30pm 9.4 3.2 2.0 60 3.1 WNW 24 35 13 19 1004.6 1004.5 0.0
15/10:08pm 9.8 3.1 1.7 57 3.4 WNW 26 52 14 28 1003.9 1003.8 0.0
15/10:00pm 9.7 4.1 1.1 55 3.6 WNW 20 33 11 18 1004.2 1004.1 0.0
15/09:30pm 10.0 2.8 0.9 53 3.7 W 28 43 15 23 1003.9 1003.8 0.0
15/09:00pm 10.2 4.2 1.1 53 3.8 W 22 37 12 20 1003.8 1003.7 0.0
15/08:30pm 10.6 3.9 1.2 52 3.9 WNW 26 35 14 19 1003.0 1002.9 0.0
15/08:00pm 10.8 5.2 1.1 51 4.1 W 20 30 11 16 1002.7 1002.6 0.0
15/07:30pm 11.5 4.0 1.5 50 4.2 WSW 30 43 16 23 1002.0 1001.9 0.0
15/07:00pm 12.1 2.7 2.3 51 4.3 W 41 54 22 29 1001.4 1001.3 0.0
15/06:38pm 12.3 1.7 1.0 46 4.8 W 46 67 25 36 1000.7 1000.6 0.0
15/06:30pm 12.7 2.8 1.4 46 4.8 W 43 57 23 31 1000.8 1000.7 0.0
15/06:03pm 13.5 5.2 2.1 46 5.0 W 35 56 19 30 1000.3 1000.2 0.0
15/06:00pm 13.8 5.9 2.1 45 5.2 W 33 52 18 28 1000.4 1000.3 0.0
15/05:31pm 13.7 5.4 2.0 45 5.1 WSW 35 56 19 30 1000.3 1000.2 0.0
15/05:30pm 13.6 4.9 2.2 46 5.0 WSW 37 56 20 30 1000.4 1000.3 0.0
15/05:03pm 13.4 3.4 0.8 42 5.3 W 43 61 23 33 1000.0 999.9 0.0
15/05:00pm 13.7 3.3 2.3 46 5.0 W 46 61 25 33 1000.1 1000.0 0.0
15/04:34pm 14.0 4.0 2.0 44 5.2 W 44 65 24 35 999.7 999.6 0.0
15/04:30pm 13.8 3.2 1.1 42 5.4 W 46 65 25 35 999.5 999.4 0.0
15/04:00pm 12.3 2.7 3.5 55 3.9 WSW 43 67 23 36 999.4 999.3 0.0
15/03:30pm 14.5 4.5 2.4 44 5.4 W 44 67 24 36 999.0 999.0 0.0
15/03:22pm 13.8 4.7 1.8 44 5.2 W 39 61 21 33 999.0 999.0 0.0
15/03:16pm 14.4 6.8 4.1 50 4.7 W 33 43 18 23 999.0 999.0 0.0
15/03:06pm 13.2 5.9 4.6 56 4.0 WSW 32 48 17 26 998.9 998.9 0.0
15/03:04pm 12.6 5.4 6.0 64 3.1 WSW 33 50 18 27 999.4 999.3 0.0
15/03:00pm 12.1 3.9 5.0 62 3.3 SW 37 54 20 29 999.3 999.2 0.0
15/02:48pm 12.9 2.4 3.8 54 4.1 WSW 48 67 26 36 998.7 998.7 0.0
15/02:47pm 13.5 3.0 3.8 52 4.4 WSW 48 67 26 36 998.7 998.7 0.0
15/02:30pm 16.4 5.9 1.3 36 6.6 W 46 70 25 38 997.9 997.9 0.0
15/02:19pm 16.3 7.1 1.2 36 6.6 W 39 59 21 32 997.7 997.7 0.0
15/02:00pm 14.2 5.5 5.8 57 4.0 WSW 41 54 22 29 998.1 998.1 0.0
15/01:30pm 15.7 7.8 4.4 47 5.3 W 35 52 19 28 997.9 997.9 0.0
15/01:00pm 15.8 8.4 4.2 46 5.4 W 32 43 17 23 998.0 998.0 0.0
15/12:30pm 16.0 7.7 2.1 39 6.2 W 35 46 19 25 997.7 997.7 0.0
15/12:02pm 15.2 7.8 1.7 40 5.9 W 30 52 16 28 997.6 997.6 0.0
15/12:00pm 15.1 8.6 0.5 37 6.3 W 24 41 13 22 997.7 997.7 0.0
15/11:30am 14.7 6.9 1.6 41 5.7 W 32 43 17 23 997.9 997.9 0.0
15/11:00am 15.2 8.3 0.2 36 6.4 WNW 26 35 14 19 998.2 998.2 0.0
15/10:30am 14.4 7.7 1.7 42 5.5 WNW 26 39 14 21 998.3 998.3 0.0
15/10:00am 14.5 6.4 3.3 47 5.1 WNW 35 44 19 24 998.3 998.3 0.0
15/09:30am 15.0 7.2 2.9 44 5.4 WNW 33 43 18 23 998.4 998.4 0.0
15/09:00am 14.4 7.8 2.3 44 5.4 WNW 26 41 14 22 998.3 998.3 0.0
15/08:43am 13.8 6.4 1.8 44 5.2 W 30 50 16 27 998.0 998.0 0.0
15/08:30am 13.9 8.0 1.9 44 5.2 W 22 33 12 18 998.3 998.3 0.0
15/08:00am 13.3 7.2 2.5 48 4.8 NW 24 44 13 24 997.8 997.8 0.0
15/07:30am 12.8 4.6 2.6 50 4.5 W 35 57 19 31 997.9 997.9 0.0
15/07:25am 12.8 5.6 3.2 52 4.3 WSW 30 57 16 31 997.8 997.8 0.0
15/07:12am 12.6 7.1 3.8 55 4.0 W 22 37 12 20 997.6 997.6 0.0
15/07:00am 12.8 9.4 4.0 55 4.0 W 11 19 6 10 997.7 997.7 0.0
15/06:30am 12.2 7.8 4.7 60 3.4 W 17 24 9 13 997.1 997.1 0.0
15/06:00am 11.6 6.2 4.6 62 3.2 WNW 22 28 12 15 996.8 996.8 0.0
15/05:30am 11.4 6.6 4.8 64 3.0 WNW 19 26 10 14 996.5 996.5 0.0
15/05:00am 11.6 7.7 3.6 58 3.6 W 13 17 7 9 996.6 996.6 0.0
15/04:30am 12.3 7.2 4.0 57 3.7 W 20 28 11 15 996.6 996.6 0.0
15/04:00am 12.5 4.6 4.5 58 3.7 W 35 43 19 23 996.3 996.3 0.0
15/03:30am 12.7 5.0 3.6 54 4.1 WSW 33 41 18 22 996.3 996.3 0.0
15/03:00am 13.0 6.3 3.7 53 4.2 W 28 37 15 20 996.4 996.4 0.0

Latest Capital City Observations: Canberra | Sydney | Melbourne | Brisbane | Adelaide | Perth | Hobart | Darwin

Other formats

Comma delimited format used in spreadsheet applications
http://www.bom.gov.au/fwo/IDT60901/IDT60901.95988.axf

JavaScript Object Notation format (JSON) in row-major order
http://www.bom.gov.au/fwo/IDT60901/IDT60901.95988.json

Data quality

Most of these data are generated automatically and are frequently updated. Quality checks on data are not normally performed. It is possible for incorrect values to appear. Refer to information at About Latest Weather Observations and please check the disclaimer before using these data.